createdAt,value
2022-11-17T00:02:39.755Z,1.83
2022-11-17T00:07:23.698Z,2.37
2022-11-17T00:12:29.783Z,2.80
2022-11-17T00:17:15.984Z,2.17
2022-11-17T00:22:01.939Z,2.23
2022-11-17T00:26:59.176Z,2.20
2022-11-17T00:31:59.741Z,2.30
2022-11-17T00:36:45.727Z,2.20
2022-11-17T00:41:30.633Z,2.70
2022-11-17T00:46:14.228Z,2.37
2022-11-17T00:50:57.692Z,1.80
2022-11-17T00:55:41.086Z,1.30
2022-11-17T01:00:26.514Z,1.30
2022-11-17T01:05:10.522Z,1.70
2022-11-17T01:09:54.749Z,2.03
2022-11-17T01:14:38.321Z,1.50
2022-11-17T01:19:24.911Z,1.60
2022-11-17T01:24:09.059Z,1.50
2022-11-17T01:28:53.820Z,1.50
2022-11-17T01:33:37.601Z,1.60
2022-11-17T01:38:22.685Z,1.73
2022-11-17T01:43:09.726Z,1.77
2022-11-17T01:47:56.004Z,2.17
2022-11-17T01:52:41.212Z,1.87
2022-11-17T01:57:31.947Z,1.80
2022-11-17T02:02:15.435Z,1.90
2022-11-17T02:07:04.594Z,2.03
2022-11-17T02:11:49.418Z,1.90
2022-11-17T02:16:34.545Z,2.40
2022-11-17T02:21:55.271Z,2.10
2022-11-17T02:27:10.142Z,2.10
2022-11-17T02:32:00.920Z,2.00
2022-11-17T02:36:48.461Z,2.00
2022-11-17T02:41:37.669Z,1.93
2022-11-17T02:46:23.675Z,2.00
2022-11-17T02:51:13.469Z,1.70
2022-11-17T02:56:00.082Z,1.80
2022-11-17T03:00:52.315Z,1.77
2022-11-17T03:05:43.002Z,1.83
2022-11-17T03:10:35.514Z,1.80
2022-11-17T03:15:28.926Z,1.40
2022-11-17T03:20:17.732Z,0.60
2022-11-17T03:25:05.214Z,0.60
2022-11-17T03:29:54.104Z,1.50
2022-11-17T03:34:42.073Z,1.43
2022-11-17T03:39:32.364Z,0.53
2022-11-17T03:44:17.801Z,0.40
2022-11-17T03:49:12.486Z,1.00
2022-11-17T03:53:56.831Z,1.10
2022-11-17T03:58:50.631Z,1.00
2022-11-17T04:03:35.308Z,1.13
2022-11-17T04:08:20.488Z,1.00
2022-11-17T04:13:21.178Z,1.17
2022-11-17T04:18:04.863Z,1.20
2022-11-17T04:23:07.190Z,1.10
2022-11-17T04:28:09.367Z,1.00
2022-11-17T04:32:52.954Z,1.53
2022-11-17T04:37:36.467Z,1.23
2022-11-17T04:42:20.012Z,1.30
2022-11-17T04:47:06.278Z,0.90
2022-11-17T04:51:50.191Z,0.90
2022-11-17T04:56:33.862Z,1.17
2022-11-17T05:01:18.228Z,1.37
2022-11-17T05:06:03.281Z,1.37
2022-11-17T05:11:04.355Z,1.10
2022-11-17T05:16:05.171Z,1.63
2022-11-17T05:20:48.659Z,1.40
2022-11-17T05:25:33.565Z,1.80
2022-11-17T05:30:17.329Z,1.50
2022-11-17T05:35:00.957Z,2.10
2022-11-17T05:39:44.449Z,2.10
2022-11-17T05:44:29.341Z,2.37
2022-11-17T05:49:12.889Z,2.00
2022-11-17T05:53:56.524Z,1.83
2022-11-17T05:58:43.526Z,2.03
2022-11-17T06:03:33.790Z,1.93
2022-11-17T06:08:17.943Z,2.77
2022-11-17T06:13:01.565Z,3.17
2022-11-17T06:17:49.159Z,2.30
2022-11-17T06:22:34.936Z,1.70
2022-11-17T06:27:18.959Z,1.50
2022-11-17T06:32:03.093Z,1.40
2022-11-17T06:36:46.457Z,1.50
2022-11-17T06:41:31.349Z,1.30
2022-11-17T06:46:15.051Z,2.00
2022-11-17T06:50:58.712Z,1.90
2022-11-17T06:55:42.246Z,1.83
2022-11-17T07:00:27.401Z,2.20
2022-11-17T07:05:11.415Z,2.20
2022-11-17T07:09:54.900Z,1.83
2022-11-17T07:14:38.589Z,1.57
2022-11-17T07:19:23.656Z,1.77
2022-11-17T07:24:07.579Z,1.93
2022-11-17T07:28:51.296Z,2.30
2022-11-17T07:33:35.217Z,2.60
2022-11-17T07:38:20.254Z,2.33
2022-11-17T07:43:03.703Z,2.20
2022-11-17T07:47:48.127Z,2.70
2022-11-17T07:52:35.017Z,2.00
2022-11-17T07:57:25.187Z,2.50
2022-11-17T08:02:09.981Z,2.17
2022-11-17T08:06:53.554Z,2.43
2022-11-17T08:11:37.058Z,2.37
2022-11-17T08:16:21.973Z,2.40
2022-11-17T08:21:06.683Z,2.50
2022-11-17T08:25:50.086Z,3.10
2022-11-17T08:30:35.660Z,3.70
2022-11-17T08:35:23.268Z,2.90
2022-11-17T08:40:08.270Z,2.60
2022-11-17T08:44:51.766Z,2.70
2022-11-17T08:49:35.468Z,1.90
2022-11-17T08:54:20.390Z,2.33
2022-11-17T08:59:03.948Z,1.30
2022-11-17T09:03:49.100Z,1.60
2022-11-17T09:08:47.923Z,1.67
2022-11-17T09:13:34.463Z,1.63
2022-11-17T09:18:17.881Z,1.57
2022-11-17T09:23:02.460Z,1.30
2022-11-17T09:27:45.883Z,1.70
2022-11-17T09:32:30.956Z,2.87
2022-11-17T09:37:14.488Z,2.93
2022-11-17T09:41:58.544Z,2.27
2022-11-17T09:47:02.680Z,2.40
2022-11-17T09:51:51.140Z,2.53
2022-11-17T09:56:35.394Z,2.13
2022-11-17T10:01:20.372Z,2.60
2022-11-17T10:06:12.692Z,2.63
2022-11-17T10:10:57.719Z,3.13
2022-11-17T10:15:47.504Z,3.40
2022-11-17T10:20:31.176Z,2.50
2022-11-17T10:25:24.040Z,2.10
2022-11-17T10:30:22.956Z,2.80
2022-11-17T10:35:17.671Z,2.60
2022-11-17T10:40:24.774Z,2.40
2022-11-17T10:45:18.825Z,1.90
2022-11-17T10:50:20.596Z,2.10
2022-11-17T10:55:22.029Z,2.57
2022-11-17T11:00:23.181Z,3.97
2022-11-17T11:05:10.311Z,3.37
2022-11-17T11:10:02.860Z,2.77
2022-11-17T11:14:52.625Z,1.50
2022-11-17T11:19:36.140Z,1.17
2022-11-17T11:24:25.166Z,1.50
2022-11-17T11:29:18.529Z,1.33
2022-11-17T11:34:15.528Z,1.50
2022-11-17T11:39:04.351Z,0.97
2022-11-17T11:44:00.834Z,1.13
2022-11-17T11:48:44.272Z,0.70
2022-11-17T11:53:37.753Z,0.80
2022-11-17T11:58:23.575Z,1.00
2022-11-17T12:03:20.239Z,0.90
2022-11-17T12:08:10.977Z,0.63
2022-11-17T12:12:54.895Z,1.83
2022-11-17T12:17:39.200Z,1.37
2022-11-17T12:23:01.090Z,1.10
2022-11-17T12:27:46.904Z,1.38
2022-11-17T12:33:00.980Z,1.33
2022-11-17T12:37:44.746Z,1.00
2022-11-17T12:42:30.716Z,0.70
2022-11-17T12:47:20.968Z,0.82
2022-11-17T12:52:14.620Z,0.93
2022-11-17T12:57:06.886Z,1.15
2022-11-17T13:01:57.235Z,1.10
2022-11-17T13:06:58.953Z,0.67
2022-11-17T13:11:42.662Z,0.50
2022-11-17T13:16:26.521Z,0.90
2022-11-17T13:21:30.369Z,0.73
2022-11-17T13:26:21.978Z,0.80
2022-11-17T13:31:06.080Z,0.93
2022-11-17T13:35:53.911Z,1.08
2022-11-17T13:40:40.467Z,1.38
2022-11-17T13:45:23.998Z,1.73
2022-11-17T13:50:34.346Z,1.48
2022-11-17T13:55:20.500Z,1.30
2022-11-17T14:00:18.710Z,1.45
2022-11-17T14:05:20.266Z,1.52
2022-11-17T14:10:14.543Z,1.48
2022-11-17T14:14:58.378Z,1.20
2022-11-17T14:19:43.449Z,1.27
2022-11-17T14:24:27.177Z,1.70
2022-11-17T14:29:13.257Z,1.80
2022-11-17T14:33:56.740Z,1.20
2022-11-17T14:38:42.024Z,1.83
2022-11-17T14:43:25.572Z,1.50
2022-11-17T14:48:09.332Z,1.10
2022-11-17T14:52:53.701Z,1.30
2022-11-17T14:57:38.759Z,1.13
2022-11-17T15:02:23.225Z,1.20
2022-11-17T15:07:07.472Z,1.30
2022-11-17T15:11:52.336Z,1.73
2022-11-17T15:16:37.230Z,1.53
2022-11-17T15:21:20.763Z,1.67
2022-11-17T15:26:05.907Z,1.60
2022-11-17T15:30:49.384Z,1.70
2022-11-17T15:35:34.191Z,3.73
2022-11-17T15:40:19.680Z,3.60
2022-11-17T15:45:03.309Z,3.90
2022-11-17T15:49:47.222Z,3.00
2022-11-17T15:54:32.196Z,3.30
2022-11-17T15:59:16.117Z,3.40
2022-11-17T16:04:01.718Z,3.83
2022-11-17T16:08:45.318Z,3.50
2022-11-17T16:13:30.978Z,3.00
2022-11-17T16:18:14.632Z,3.23
2022-11-17T16:22:59.480Z,3.70
2022-11-17T16:27:43.485Z,3.87
2022-11-17T16:32:28.342Z,4.20
2022-11-17T16:37:12.173Z,4.13
2022-11-17T16:41:55.928Z,3.57
2022-11-17T16:46:40.215Z,5.43
2022-11-17T16:51:28.623Z,4.27
2022-11-17T16:56:14.184Z,5.37
2022-11-17T17:00:59.126Z,10.63
2022-11-17T17:05:45.602Z,7.17
2022-11-17T17:10:31.618Z,5.40
2022-11-17T17:15:16.156Z,5.87
2022-11-17T17:20:00.314Z,6.80
2022-11-17T17:24:44.010Z,7.57
2022-11-17T17:29:28.857Z,7.73
2022-11-17T17:34:13.745Z,6.13
2022-11-17T17:39:00.637Z,4.80
2022-11-17T17:43:45.946Z,5.33
2022-11-17T17:48:33.243Z,3.70
2022-11-17T17:53:17.427Z,3.70
2022-11-17T17:58:03.476Z,3.97
2022-11-17T18:02:48.471Z,4.57
2022-11-17T18:07:34.727Z,4.03
2022-11-17T18:12:19.184Z,4.57
2022-11-17T18:17:05.047Z,5.73
2022-11-17T18:21:52.122Z,5.60
2022-11-17T18:26:40.070Z,4.30
2022-11-17T18:31:26.372Z,4.57
2022-11-17T18:36:12.484Z,5.97
2022-11-17T18:41:05.711Z,4.47
2022-11-17T18:45:52.073Z,3.53
2022-11-17T18:50:52.042Z,2.57
2022-11-17T18:55:41.925Z,4.10
2022-11-17T19:00:27.563Z,4.47
2022-11-17T19:05:16.079Z,4.47
2022-11-17T19:10:00.977Z,5.13
2022-11-17T19:14:46.250Z,8.13
2022-11-17T19:19:31.776Z,7.30
2022-11-17T19:24:18.005Z,7.10
2022-11-17T19:29:07.096Z,6.87
2022-11-17T19:33:55.817Z,6.93
2022-11-17T19:38:43.652Z,6.30
2022-11-17T19:43:31.038Z,8.10
2022-11-17T19:48:16.664Z,7.20
2022-11-17T19:53:01.719Z,7.67
2022-11-17T19:57:48.668Z,7.03
2022-11-17T20:02:35.279Z,6.53
2022-11-17T20:07:20.039Z,6.20
2022-11-17T20:12:07.300Z,6.83
2022-11-17T20:16:52.684Z,6.90
2022-11-17T20:21:41.037Z,6.47
2022-11-17T20:26:27.138Z,5.57
2022-11-17T20:31:12.980Z,5.67
2022-11-17T20:36:01.812Z,5.47
2022-11-17T20:40:48.761Z,4.00
2022-11-17T20:45:34.301Z,3.67
2022-11-17T20:50:19.711Z,2.23
2022-11-17T20:55:04.327Z,2.63
2022-11-17T20:59:51.190Z,2.40
2022-11-17T21:04:38.404Z,1.37
2022-11-17T21:09:24.063Z,1.50
2022-11-17T21:14:10.555Z,1.10
2022-11-17T21:18:58.201Z,0.90
2022-11-17T21:23:43.273Z,0.87
2022-11-17T21:28:28.479Z,1.10
2022-11-17T21:33:13.166Z,1.13
2022-11-17T21:37:59.638Z,0.73
2022-11-17T21:42:44.436Z,2.13
2022-11-17T21:47:28.927Z,1.00
2022-11-17T21:52:12.580Z,0.83
2022-11-17T21:56:57.471Z,1.10
2022-11-17T22:01:41.574Z,0.97
2022-11-17T22:06:26.463Z,0.67
2022-11-17T22:11:11.880Z,0.80
2022-11-17T22:15:56.769Z,0.83
2022-11-17T22:20:40.442Z,1.40
2022-11-17T22:25:44.022Z,1.70
2022-11-17T22:30:27.538Z,1.73
2022-11-17T22:35:12.494Z,0.80
2022-11-17T22:39:55.998Z,1.07
2022-11-17T22:44:39.589Z,1.30
2022-11-17T22:49:23.239Z,1.10
2022-11-17T22:54:09.252Z,1.63
2022-11-17T22:58:56.840Z,1.60
2022-11-17T23:03:43.065Z,1.30
2022-11-17T23:08:26.610Z,1.20
2022-11-17T23:13:11.880Z,1.30
2022-11-17T23:17:55.961Z,1.30
2022-11-17T23:22:39.564Z,1.43
2022-11-17T23:27:23.116Z,1.03
2022-11-17T23:32:08.510Z,1.10
2022-11-17T23:36:52.159Z,1.20
2022-11-17T23:41:35.673Z,1.30
2022-11-17T23:46:20.907Z,1.30
2022-11-17T23:51:08.193Z,1.70
2022-11-17T23:55:55.856Z,1.50
